sensor_id;sensor_type;location;lat;lon;timestamp;pressure;altitude;pressure_sealevel;temperature;humidity
26719;BME280;14326;50.794;6.060;2023-07-02T00:01:45;98911.38;;;16.31;99.80
26719;BME280;14326;50.794;6.060;2023-07-02T00:07:13;98909.78;;;16.23;99.54
26719;BME280;14326;50.794;6.060;2023-07-02T00:09:45;98910.78;;;16.19;100.00
26719;BME280;14326;50.794;6.060;2023-07-02T00:12:40;98915.28;;;16.18;99.80
26719;BME280;14326;50.794;6.060;2023-07-02T00:15:11;98918.78;;;16.20;98.84
26719;BME280;14326;50.794;6.060;2023-07-02T00:17:39;98916.16;;;16.19;99.91
26719;BME280;14326;50.794;6.060;2023-07-02T00:20:07;98913.38;;;16.22;99.91
26719;BME280;14326;50.794;6.060;2023-07-02T00:22:39;98916.16;;;16.19;100.00
26719;BME280;14326;50.794;6.060;2023-07-02T00:25:07;98920.72;;;16.15;99.96
26719;BME280;14326;50.794;6.060;2023-07-02T00:27:33;98912.81;;;16.09;99.70
26719;BME280;14326;50.794;6.060;2023-07-02T00:30:00;98911.00;;;16.10;99.47
26719;BME280;14326;50.794;6.060;2023-07-02T00:32:27;98908.41;;;16.07;99.66
26719;BME280;14326;50.794;6.060;2023-07-02T00:38:22;98905.94;;;15.97;99.63
26719;BME280;14326;50.794;6.060;2023-07-02T00:41:09;98896.06;;;16.00;99.59
26719;BME280;14326;50.794;6.060;2023-07-02T00:44:13;98906.81;;;15.98;99.14
26719;BME280;14326;50.794;6.060;2023-07-02T00:46:40;98905.03;;;15.98;99.92
26719;BME280;14326;50.794;6.060;2023-07-02T00:49:08;98900.69;;;15.93;99.75
26719;BME280;14326;50.794;6.060;2023-07-02T00:51:35;98902.59;;;15.88;99.01
26719;BME280;14326;50.794;6.060;2023-07-02T00:54:04;98905.44;;;15.82;99.75
26719;BME280;14326;50.794;6.060;2023-07-02T00:56:51;98905.56;;;15.76;100.00
26719;BME280;14326;50.794;6.060;2023-07-02T00:59:44;98907.34;;;15.77;100.00
26719;BME280;14326;50.794;6.060;2023-07-02T01:02:24;98904.63;;;15.78;100.00
26719;BME280;14326;50.794;6.060;2023-07-02T01:05:15;98901.97;;;15.77;100.00
26719;BME280;14326;50.794;6.060;2023-07-02T01:08:03;98900.19;;;15.77;100.00
26719;BME280;14326;50.794;6.060;2023-07-02T01:13:45;98902.03;;;15.74;99.91
26719;BME280;14326;50.794;6.060;2023-07-02T01:16:21;98908.28;;;15.74;99.79
26719;BME280;14326;50.794;6.060;2023-07-02T01:18:49;98912.84;;;15.71;99.49
26719;BME280;14326;50.794;6.060;2023-07-02T01:21:21;98903.81;;;15.73;99.25
26719;BME280;14326;50.794;6.060;2023-07-02T01:23:55;98902.88;;;15.77;99.98
26719;BME280;14326;50.794;6.060;2023-07-02T01:29:24;98900.94;;;15.82;99.32
26719;BME280;14326;50.794;6.060;2023-07-02T01:32:15;98911.69;;;15.82;99.14
26719;BME280;14326;50.794;6.060;2023-07-02T01:34:46;98903.81;;;15.75;99.54
26719;BME280;14326;50.794;6.060;2023-07-02T01:37:15;98900.22;;;15.76;99.17
26719;BME280;14326;50.794;6.060;2023-07-02T01:39:43;98907.41;;;15.74;99.00
26719;BME280;14326;50.794;6.060;2023-07-02T01:42:11;98910.06;;;15.74;99.15
26719;BME280;14326;50.794;6.060;2023-07-02T01:44:41;98908.38;;;15.70;99.03
26719;BME280;14326;50.794;6.060;2023-07-02T01:47:08;98912.84;;;15.71;99.14
26719;BME280;14326;50.794;6.060;2023-07-02T01:49:35;98906.59;;;15.70;99.87
26719;BME280;14326;50.794;6.060;2023-07-02T01:52:16;98903.94;;;15.69;99.97
26719;BME280;14326;50.794;6.060;2023-07-02T01:55:06;98900.44;;;15.67;99.00
26719;BME280;14326;50.794;6.060;2023-07-02T01:58:03;98903.19;;;15.62;99.23
26719;BME280;14326;50.794;6.060;2023-07-02T02:00:42;98910.31;;;15.65;99.68
26719;BME280;14326;50.794;6.060;2023-07-02T02:03:23;98909.38;;;15.66;99.11
26719;BME280;14326;50.794;6.060;2023-07-02T02:06:10;98915.50;;;15.72;99.27
26719;BME280;14326;50.794;6.060;2023-07-02T02:08:50;98914.63;;;15.72;99.48
26719;BME280;14326;50.794;6.060;2023-07-02T02:11:39;98916.53;;;15.65;99.61
26719;BME280;14326;50.794;6.060;2023-07-02T02:14:20;98921.91;;;15.65;99.15
26719;BME280;14326;50.794;6.060;2023-07-02T02:16:47;98918.34;;;15.65;99.49
26719;BME280;14326;50.794;6.060;2023-07-02T02:19:26;98933.66;;;15.60;99.59
26719;BME280;14326;50.794;6.060;2023-07-02T02:22:14;98920.28;;;15.58;100.00
26719;BME280;14326;50.794;6.060;2023-07-02T02:24:45;98919.38;;;15.57;100.00
26719;BME280;14326;50.794;6.060;2023-07-02T02:27:38;98922.97;;;15.58;100.00
26719;BME280;14326;50.794;6.060;2023-07-02T02:30:24;98927.50;;;15.54;100.00
26719;BME280;14326;50.794;6.060;2023-07-02T02:33:02;98924.78;;;15.56;100.00
26719;BME280;14326;50.794;6.060;2023-07-02T02:35:39;98927.50;;;15.54;100.00
26719;BME280;14326;50.794;6.060;2023-07-02T02:38:23;98925.66;;;15.56;100.00
26719;BME280;14326;50.794;6.060;2023-07-02T02:40:56;98925.56;;;15.61;100.00
26719;BME280;14326;50.794;6.060;2023-07-02T02:43:24;98932.78;;;15.57;100.00
26719;BME280;14326;50.794;6.060;2023-07-02T02:46:08;98931.88;;;15.59;99.90
26719;BME280;14326;50.794;6.060;2023-07-02T02:48:49;98926.44;;;15.62;100.00
26719;BME280;14326;50.794;6.060;2023-07-02T02:51:15;98938.03;;;15.62;99.67
26719;BME280;14326;50.794;6.060;2023-07-02T02:53:42;98926.25;;;15.71;99.56
26719;BME280;14326;50.794;6.060;2023-07-02T02:59:35;98931.63;;;15.69;99.95
26719;BME280;14326;50.794;6.060;2023-07-02T03:02:01;98932.53;;;15.68;100.00
26719;BME280;14326;50.794;6.060;2023-07-02T03:04:28;98931.63;;;15.71;100.00
26719;BME280;14326;50.794;6.060;2023-07-02T03:07:08;98934.22;;;15.74;99.16
26719;BME280;14326;50.794;6.060;2023-07-02T03:09:46;98936.88;;;15.75;99.36
26719;BME280;14326;50.794;6.060;2023-07-02T03:12:29;98936.75;;;15.80;100.00
26719;BME280;14326;50.794;6.060;2023-07-02T03:15:11;98944.00;;;15.76;100.00
26719;BME280;14326;50.794;6.060;2023-07-02T03:17:37;98928.72;;;15.80;99.69
26719;BME280;14326;50.794;6.060;2023-07-02T03:20:05;98939.44;;;15.80;99.86
26719;BME280;14326;50.794;6.060;2023-07-02T03:22:34;98935.84;;;15.81;99.81
26719;BME280;14326;50.794;6.060;2023-07-02T03:25:00;98942.88;;;15.85;99.75
26719;BME280;14326;50.794;6.060;2023-07-02T03:27:27;98940.19;;;15.86;99.24
26719;BME280;14326;50.794;6.060;2023-07-02T03:30:00;98941.06;;;15.87;99.07
26719;BME280;14326;50.794;6.060;2023-07-02T03:32:45;98945.53;;;15.88;99.90
26719;BME280;14326;50.794;6.060;2023-07-02T03:35:21;98944.53;;;15.90;99.53
26719;BME280;14326;50.794;6.060;2023-07-02T03:37:47;98950.78;;;15.91;99.32
26719;BME280;14326;50.794;6.060;2023-07-02T03:40:14;98948.22;;;15.86;99.56
26719;BME280;14326;50.794;6.060;2023-07-02T03:42:41;98949.88;;;15.92;99.23
26719;BME280;14326;50.794;6.060;2023-07-02T03:45:15;98955.25;;;15.92;99.12
26719;BME280;14326;50.794;6.060;2023-07-02T03:48:15;98958.91;;;15.89;99.49
26719;BME280;14326;50.794;6.060;2023-07-02T03:51:06;98961.53;;;15.91;99.97
26719;BME280;14326;50.794;6.060;2023-07-02T03:53:47;98961.53;;;15.91;99.84
26719;BME280;14326;50.794;6.060;2023-07-02T03:56:19;98965.06;;;15.93;99.14
26719;BME280;14326;50.794;6.060;2023-07-02T03:58:46;98974.03;;;15.90;99.51
26719;BME280;14326;50.794;6.060;2023-07-02T04:01:13;98971.38;;;15.90;99.87
26719;BME280;14326;50.794;6.060;2023-07-02T04:03:47;98978.63;;;15.87;100.00
26719;BME280;14326;50.794;6.060;2023-07-02T04:06:14;98982.97;;;15.91;99.62
26719;BME280;14326;50.794;6.060;2023-07-02T04:08:40;98988.28;;;15.94;98.89
26719;BME280;14326;50.794;6.060;2023-07-02T04:11:07;98997.19;;;15.96;100.00
26719;BME280;14326;50.794;6.060;2023-07-02T04:13:33;98996.25;;;15.97;99.52
26719;BME280;14326;50.794;6.060;2023-07-02T04:16:00;99001.63;;;15.97;99.27
26719;BME280;14326;50.794;6.060;2023-07-02T04:18:26;98998.03;;;15.98;99.30
26719;BME280;14326;50.794;6.060;2023-07-02T04:20:55;98998.91;;;15.98;99.24
26719;BME280;14326;50.794;6.060;2023-07-02T04:23:22;99005.25;;;15.96;99.81
26719;BME280;14326;50.794;6.060;2023-07-02T04:25:48;99006.97;;;15.97;99.99
26719;BME280;14326;50.794;6.060;2023-07-02T04:28:27;98999.78;;;15.99;99.89
26719;BME280;14326;50.794;6.060;2023-07-02T04:31:32;99005.03;;;16.05;99.71
26719;BME280;14326;50.794;6.060;2023-07-02T04:34:26;99002.34;;;16.05;100.00
26719;BME280;14326;50.794;6.060;2023-07-02T04:37:09;99006.81;;;16.05;99.87
26719;BME280;14326;50.794;6.060;2023-07-02T04:39:38;99003.25;;;16.04;100.00
26719;BME280;14326;50.794;6.060;2023-07-02T04:42:16;99006.69;;;16.11;100.00
26719;BME280;14326;50.794;6.060;2023-07-02T04:44:43;99020.13;;;16.09;100.00
26719;BME280;14326;50.794;6.060;2023-07-02T04:47:15;99012.13;;;16.08;100.00
26719;BME280;14326;50.794;6.060;2023-07-02T04:50:00;99016.47;;;16.13;100.00
26719;BME280;14326;50.794;6.060;2023-07-02T04:55:47;99019.97;;;16.17;100.00
26719;BME280;14326;50.794;6.060;2023-07-02T04:58:31;99025.28;;;16.20;100.00
26719;BME280;14326;50.794;6.060;2023-07-02T05:00:58;99017.16;;;16.21;100.00
26719;BME280;14326;50.794;6.060;2023-07-02T05:03:26;99031.31;;;16.28;100.00
26719;BME280;14326;50.794;6.060;2023-07-02T05:06:16;99025.84;;;16.32;100.00
26719;BME280;14326;50.794;6.060;2023-07-02T05:08:59;99030.25;;;16.36;100.00
26719;BME280;14326;50.794;6.060;2023-07-02T05:11:52;99031.84;;;16.44;100.00
26719;BME280;14326;50.794;6.060;2023-07-02T05:14:18;99031.69;;;16.50;100.00
26719;BME280;14326;50.794;6.060;2023-07-02T05:16:45;99041.50;;;16.51;100.00
26719;BME280;14326;50.794;6.060;2023-07-02T05:19:25;99038.00;;;16.49;100.00
26719;BME280;14326;50.794;6.060;2023-07-02T05:22:00;99045.97;;;16.52;99.26
26719;BME280;14326;50.794;6.060;2023-07-02T05:24:42;99036.00;;;16.57;99.39
26719;BME280;14326;50.794;6.060;2023-07-02T05:27:09;99044.91;;;16.59;99.67
26719;BME280;14326;50.794;6.060;2023-07-02T05:29:53;99050.28;;;16.59;100.00
26719;BME280;14326;50.794;6.060;2023-07-02T05:32:24;99048.25;;;16.70;99.79
26719;BME280;14326;50.794;6.060;2023-07-02T05:35:16;99048.06;;;16.77;99.07
26719;BME280;14326;50.794;6.060;2023-07-02T05:38:15;99049.56;;;16.89;100.00
26719;BME280;14326;50.794;6.060;2023-07-02T05:41:07;99044.94;;;16.94;99.18
26719;BME280;14326;50.794;6.060;2023-07-02T05:43:41;99051.06;;;16.99;98.74
26719;BME280;14326;50.794;6.060;2023-07-02T05:46:30;99051.81;;;17.06;98.89
26719;BME280;14326;50.794;6.060;2023-07-02T05:49:03;99062.28;;;17.16;98.21
26719;BME280;14326;50.794;6.060;2023-07-02T05:51:31;99062.03;;;17.26;96.51
26719;BME280;14326;50.794;6.060;2023-07-02T05:57:25;99066.41;;;17.30;95.84
26719;BME280;14326;50.794;6.060;2023-07-02T06:00:14;99063.84;;;17.25;96.85
26719;BME280;14326;50.794;6.060;2023-07-02T06:03:01;99074.44;;;17.31;97.49
26719;BME280;14326;50.794;6.060;2023-07-02T06:05:27;99073.72;;;17.25;95.99
26719;BME280;14326;50.794;6.060;2023-07-02T06:07:55;99066.38;;;17.31;96.65
26719;BME280;14326;50.794;6.060;2023-07-02T06:10:45;99069.56;;;17.44;96.03
26719;BME280;14326;50.794;6.060;2023-07-02T06:13:14;99071.16;;;17.52;95.01
26719;BME280;14326;50.794;6.060;2023-07-02T06:15:41;99077.06;;;17.67;95.02
26719;BME280;14326;50.794;6.060;2023-07-02T06:18:08;99070.41;;;17.80;94.09
26719;BME280;14326;50.794;6.060;2023-07-02T06:20:35;99068.41;;;17.86;93.22
26719;BME280;14326;50.794;6.060;2023-07-02T06:23:02;99076.09;;;18.00;92.42
26719;BME280;14326;50.794;6.060;2023-07-02T06:25:28;99079.38;;;18.10;90.58
26719;BME280;14326;50.794;6.060;2023-07-02T06:27:55;99086.53;;;18.11;89.44
26719;BME280;14326;50.794;6.060;2023-07-02T06:30:25;99080.94;;;18.18;88.58
26719;BME280;14326;50.794;6.060;2023-07-02T06:35:51;99098.38;;;18.34;88.45
26719;BME280;14326;50.794;6.060;2023-07-02T06:38:35;99083.78;;;18.41;88.49
26719;BME280;14326;50.794;6.060;2023-07-02T06:41:06;99094.28;;;18.51;88.18
26719;BME280;14326;50.794;6.060;2023-07-02T06:43:33;99093.16;;;18.59;86.81
26719;BME280;14326;50.794;6.060;2023-07-02T06:46:01;99094.81;;;18.63;88.31
26719;BME280;14326;50.794;6.060;2023-07-02T06:48:27;99104.16;;;18.79;87.14
26719;BME280;14326;50.794;6.060;2023-07-02T06:50:55;99100.59;;;18.79;86.42
26719;BME280;14326;50.794;6.060;2023-07-02T06:53:22;99107.72;;;18.80;87.96
26719;BME280;14326;50.794;6.060;2023-07-02T06:55:48;99102.22;;;18.85;87.87
26719;BME280;14326;50.794;6.060;2023-07-02T06:58:15;99109.16;;;18.92;86.04
26719;BME280;14326;50.794;6.060;2023-07-02T07:00:42;99114.53;;;18.92;84.08
26719;BME280;14326;50.794;6.060;2023-07-02T07:03:09;99115.63;;;18.86;84.75
26719;BME280;14326;50.794;6.060;2023-07-02T07:05:36;99115.78;;;18.81;83.68
26719;BME280;14326;50.794;6.060;2023-07-02T07:08:03;99120.19;;;18.84;84.10
26719;BME280;14326;50.794;6.060;2023-07-02T07:13:28;99121.00;;;18.86;86.05
26719;BME280;14326;50.794;6.060;2023-07-02T07:16:07;99117.69;;;18.78;86.44
26719;BME280;14326;50.794;6.060;2023-07-02T07:18:35;99124.41;;;18.65;85.33
26719;BME280;14326;50.794;6.060;2023-07-02T07:21:02;99129.13;;;18.57;85.91
26719;BME280;14326;50.794;6.060;2023-07-02T07:23:28;99125.78;;;18.49;87.03
26719;BME280;14326;50.794;6.060;2023-07-02T07:28:54;99123.16;;;18.46;86.74
26719;BME280;14326;50.794;6.060;2023-07-02T07:31:27;99126.84;;;18.43;86.38
26719;BME280;14326;50.794;6.060;2023-07-02T07:34:23;99122.19;;;18.48;88.21
26719;BME280;14326;50.794;6.060;2023-07-02T07:37:09;99130.75;;;18.62;86.74
26719;BME280;14326;50.794;6.060;2023-07-02T07:40:01;99132.44;;;18.66;84.82
26719;BME280;14326;50.794;6.060;2023-07-02T07:42:43;99125.88;;;18.75;84.95
26719;BME280;14326;50.794;6.060;2023-07-02T07:45:10;99126.31;;;18.89;85.15
26719;BME280;14326;50.794;6.060;2023-07-02T07:48:00;99130.81;;;18.89;83.85
26719;BME280;14326;50.794;6.060;2023-07-02T07:50:40;99136.94;;;18.94;84.19
26719;BME280;14326;50.794;6.060;2023-07-02T07:53:32;99128.69;;;18.98;84.40
26719;BME280;14326;50.794;6.060;2023-07-02T07:55:58;99127.53;;;19.07;83.47
26719;BME280;14326;50.794;6.060;2023-07-02T07:58:25;99142.38;;;19.20;83.93
26719;BME280;14326;50.794;6.060;2023-07-02T08:00:52;99140.41;;;19.25;79.93
26719;BME280;14326;50.794;6.060;2023-07-02T08:03:18;99134.38;;;19.43;80.52
26719;BME280;14326;50.794;6.060;2023-07-02T08:06:04;99132.81;;;19.62;79.33
26719;BME280;14326;50.794;6.060;2023-07-02T08:08:58;99143.75;;;19.84;77.83
26719;BME280;14326;50.794;6.060;2023-07-02T08:11:38;99143.47;;;19.67;74.73
26719;BME280;14326;50.794;6.060;2023-07-02T08:14:12;99148.63;;;19.48;75.75
26719;BME280;14326;50.794;6.060;2023-07-02T08:16:39;99152.06;;;19.26;74.06
26719;BME280;14326;50.794;6.060;2023-07-02T08:19:05;99159.31;;;19.23;73.29
26719;BME280;14326;50.794;6.060;2023-07-02T08:22:00;99151.91;;;19.30;74.53
26719;BME280;14326;50.794;6.060;2023-07-02T08:24:34;99161.28;;;19.46;73.45
26719;BME280;14326;50.794;6.060;2023-07-02T08:27:17;99162.78;;;19.55;73.19
26719;BME280;14326;50.794;6.060;2023-07-02T08:29:59;99164.44;;;19.59;75.10
26719;BME280;14326;50.794;6.060;2023-07-02T08:33:01;99160.72;;;19.61;74.79
26719;BME280;14326;50.794;6.060;2023-07-02T08:35:36;99171.22;;;19.71;74.80
26719;BME280;14326;50.794;6.060;2023-07-02T08:38:04;99165.66;;;19.75;73.16
26719;BME280;14326;50.794;6.060;2023-07-02T08:40:31;99171.28;;;19.69;73.76
26719;BME280;14326;50.794;6.060;2023-07-02T08:42:58;99177.94;;;19.59;72.61
26719;BME280;14326;50.794;6.060;2023-07-02T08:45:25;99171.91;;;19.51;74.63
26719;BME280;14326;50.794;6.060;2023-07-02T08:47:52;99179.94;;;19.52;75.38
26719;BME280;14326;50.794;6.060;2023-07-02T08:50:21;99177.47;;;19.46;75.94
26719;BME280;14326;50.794;6.060;2023-07-02T08:52:48;99187.31;;;19.47;74.54
26719;BME280;14326;50.794;6.060;2023-07-02T08:55:16;99181.41;;;19.35;76.71
26719;BME280;14326;50.794;6.060;2023-07-02T08:57:49;99178.53;;;19.41;77.96
26719;BME280;14326;50.794;6.060;2023-07-02T09:00:17;99182.78;;;19.49;75.88
26719;BME280;14326;50.794;6.060;2023-07-02T09:02:44;99191.88;;;19.72;75.27
26719;BME280;14326;50.794;6.060;2023-07-02T09:05:23;99188.75;;;19.84;74.78
26719;BME280;14326;50.794;6.060;2023-07-02T09:08:05;99184.97;;;19.89;73.56
26719;BME280;14326;50.794;6.060;2023-07-02T09:14:03;99178.25;;;20.01;75.70
26719;BME280;14326;50.794;6.060;2023-07-02T09:16:31;99174.91;;;20.18;73.74
26719;BME280;14326;50.794;6.060;2023-07-02T09:19:02;99172.44;;;20.36;73.58
26719;BME280;14326;50.794;6.060;2023-07-02T09:21:38;99183.50;;;20.54;72.77
26719;BME280;14326;50.794;6.060;2023-07-02T09:27:07;99181.88;;;20.50;71.57
26719;BME280;14326;50.794;6.060;2023-07-02T09:29:35;99183.31;;;20.81;70.64
26719;BME280;14326;50.794;6.060;2023-07-02T09:32:03;99179.22;;;20.93;68.95
26719;BME280;14326;50.794;6.060;2023-07-02T09:34:33;99188.72;;;21.03;69.81
26719;BME280;14326;50.794;6.060;2023-07-02T09:37:01;99182.38;;;21.04;68.20
26719;BME280;14326;50.794;6.060;2023-07-02T09:39:31;99183.00;;;21.34;68.40
26719;BME280;14326;50.794;6.060;2023-07-02T09:42:10;99178.22;;;21.41;64.79
26719;BME280;14326;50.794;6.060;2023-07-02T09:44:54;99185.41;;;21.42;66.16
26719;BME280;14326;50.794;6.060;2023-07-02T09:47:21;99186.28;;;21.42;65.18
26719;BME280;14326;50.794;6.060;2023-07-02T09:49:53;99189.53;;;21.50;64.99
26719;BME280;14326;50.794;6.060;2023-07-02T09:52:20;99182.34;;;21.71;63.65
26719;BME280;14326;50.794;6.060;2023-07-02T09:54:47;99190.88;;;21.82;63.88
26719;BME280;14326;50.794;6.060;2023-07-02T09:57:14;99191.81;;;21.61;61.97
26719;BME280;14326;50.794;6.060;2023-07-02T09:59:53;99196.78;;;21.28;63.39
26719;BME280;14326;50.794;6.060;2023-07-02T10:02:24;99196.47;;;20.91;65.86
26719;BME280;14326;50.794;6.060;2023-07-02T10:04:56;99197.75;;;20.80;65.73
26719;BME280;14326;50.794;6.060;2023-07-02T10:07:42;99206.00;;;20.54;65.22
26719;BME280;14326;50.794;6.060;2023-07-02T10:10:45;99210.06;;;20.42;65.81
26719;BME280;14326;50.794;6.060;2023-07-02T10:13:28;99207.16;;;20.22;65.98
26719;BME280;14326;50.794;6.060;2023-07-02T10:16:07;99208.53;;;20.09;65.28
26719;BME280;14326;50.794;6.060;2023-07-02T10:18:45;99214.81;;;20.10;66.33
26719;BME280;14326;50.794;6.060;2023-07-02T10:21:23;99214.06;;;20.06;67.80
26719;BME280;14326;50.794;6.060;2023-07-02T10:24:24;99213.38;;;19.99;69.29
26719;BME280;14326;50.794;6.060;2023-07-02T10:27:01;99210.50;;;19.79;69.15
26719;BME280;14326;50.794;6.060;2023-07-02T10:32:43;99206.97;;;19.77;67.48
26719;BME280;14326;50.794;6.060;2023-07-02T10:35:26;99217.63;;;19.82;65.33
26719;BME280;14326;50.794;6.060;2023-07-02T10:38:06;99206.13;;;20.01;65.41
26719;BME280;14326;50.794;6.060;2023-07-02T10:40:38;99208.16;;;20.44;65.36
26719;BME280;14326;50.794;6.060;2023-07-02T10:43:34;99200.38;;;20.60;64.59
26719;BME280;14326;50.794;6.060;2023-07-02T10:46:24;99198.78;;;20.78;64.68
26719;BME280;14326;50.794;6.060;2023-07-02T10:48:52;99198.78;;;20.78;61.06
26719;BME280;14326;50.794;6.060;2023-07-02T10:51:20;99196.38;;;20.70;60.77
26719;BME280;14326;50.794;6.060;2023-07-02T10:53:56;99203.47;;;20.50;61.95
26719;BME280;14326;50.794;6.060;2023-07-02T10:56:37;99202.50;;;20.51;65.29
26719;BME280;14326;50.794;6.060;2023-07-02T10:59:08;99199.75;;;20.52;62.92
26719;BME280;14326;50.794;6.060;2023-07-02T11:01:41;99202.41;;;20.54;61.29
26719;BME280;14326;50.794;6.060;2023-07-02T11:04:25;99199.81;;;20.51;63.25
26719;BME280;14326;50.794;6.060;2023-07-02T11:07:05;99209.81;;;20.49;63.29
26719;BME280;14326;50.794;6.060;2023-07-02T11:09:32;99209.28;;;20.62;63.56
26719;BME280;14326;50.794;6.060;2023-07-02T11:12:00;99203.88;;;20.62;62.57
26719;BME280;14326;50.794;6.060;2023-07-02T11:14:30;99209.13;;;20.67;59.83
26719;BME280;14326;50.794;6.060;2023-07-02T11:16:58;99217.56;;;20.58;57.62
26719;BME280;14326;50.794;6.060;2023-07-02T11:19:27;99215.09;;;20.75;58.56
26719;BME280;14326;50.794;6.060;2023-07-02T11:21:55;99209.50;;;20.79;57.09
26719;BME280;14326;50.794;6.060;2023-07-02T11:24:29;99208.00;;;20.96;54.56
26719;BME280;14326;50.794;6.060;2023-07-02T11:26:57;99204.81;;;21.08;54.87
26719;BME280;14326;50.794;6.060;2023-07-02T11:29:24;99209.38;;;21.06;56.44
26719;BME280;14326;50.794;6.060;2023-07-02T11:32:58;99206.72;;;21.04;58.49
26719;BME280;14326;50.794;6.060;2023-07-02T11:35:18;99223.19;;;20.98;57.25
26719;BME280;14326;50.794;6.060;2023-07-02T11:38:02;99211.75;;;20.92;56.31
26719;BME280;14326;50.794;6.060;2023-07-02T11:43:51;99208.97;;;20.93;55.93
26719;BME280;14326;50.794;6.060;2023-07-02T11:46:17;99205.97;;;20.79;57.77
26719;BME280;14326;50.794;6.060;2023-07-02T11:48:44;99203.81;;;20.87;58.49
26719;BME280;14326;50.794;6.060;2023-07-02T11:51:11;99204.22;;;21.00;57.26
26719;BME280;14326;50.794;6.060;2023-07-02T11:53:42;99212.47;;;21.20;58.55
26719;BME280;14326;50.794;6.060;2023-07-02T11:56:19;99211.50;;;21.43;57.02
26719;BME280;14326;50.794;6.060;2023-07-02T11:58:57;99202.44;;;21.65;54.94
26719;BME280;14326;50.794;6.060;2023-07-02T12:01:24;99204.81;;;21.73;56.60
26719;BME280;14326;50.794;6.060;2023-07-02T12:03:57;99209.28;;;21.96;55.47
26719;BME280;14326;50.794;6.060;2023-07-02T12:07:00;99207.59;;;22.14;52.81
26719;BME280;14326;50.794;6.060;2023-07-02T12:12:39;99219.97;;;21.99;52.47
26719;BME280;14326;50.794;6.060;2023-07-02T12:15:07;99216.84;;;21.86;53.14
26719;BME280;14326;50.794;6.060;2023-07-02T12:17:33;99218.88;;;21.81;52.98
26719;BME280;14326;50.794;6.060;2023-07-02T12:20:00;99224.81;;;21.91;52.70
26719;BME280;14326;50.794;6.060;2023-07-02T12:22:41;99224.03;;;21.87;52.11
26719;BME280;14326;50.794;6.060;2023-07-02T12:25:21;99216.19;;;22.03;51.96
26719;BME280;14326;50.794;6.060;2023-07-02T12:27:49;99221.50;;;22.04;51.65
26719;BME280;14326;50.794;6.060;2023-07-02T12:30:15;99217.88;;;22.05;52.01
26719;BME280;14326;50.794;6.060;2023-07-02T12:32:43;99212.84;;;22.17;49.95
26719;BME280;14326;50.794;6.060;2023-07-02T12:35:10;99215.50;;;22.18;49.23
26719;BME280;14326;50.794;6.060;2023-07-02T12:37:52;99217.53;;;22.13;49.43
26719;BME280;14326;50.794;6.060;2023-07-02T12:40:20;99209.03;;;22.21;49.37
26719;BME280;14326;50.794;6.060;2023-07-02T12:42:48;99217.38;;;22.16;50.65
26719;BME280;14326;50.794;6.060;2023-07-02T12:45:16;99228.84;;;22.23;51.39
26719;BME280;14326;50.794;6.060;2023-07-02T12:47:42;99223.56;;;21.99;52.08
26719;BME280;14326;50.794;6.060;2023-07-02T12:50:10;99227.63;;;21.88;51.63
26719;BME280;14326;50.794;6.060;2023-07-02T12:52:54;99226.75;;;21.87;53.71
26719;BME280;14326;50.794;6.060;2023-07-02T12:55:21;99219.03;;;22.00;54.43
26719;BME280;14326;50.794;6.060;2023-07-02T12:57:49;99229.53;;;22.08;52.78
26719;BME280;14326;50.794;6.060;2023-07-02T13:00:16;99228.25;;;21.94;53.13
26719;BME280;14326;50.794;6.060;2023-07-02T13:02:43;99225.88;;;22.09;51.22
26719;BME280;14326;50.794;6.060;2023-07-02T13:05:09;99227.75;;;22.27;50.33
26719;BME280;14326;50.794;6.060;2023-07-02T13:07:36;99221.16;;;22.53;49.81
26719;BME280;14326;50.794;6.060;2023-07-02T13:10:13;99217.94;;;22.63;48.94
26719;BME280;14326;50.794;6.060;2023-07-02T13:12:54;99219.59;;;22.47;49.35
26719;BME280;14326;50.794;6.060;2023-07-02T13:15:21;99219.75;;;22.44;48.86
26719;BME280;14326;50.794;6.060;2023-07-02T13:17:48;99228.28;;;22.35;50.62
26719;BME280;14326;50.794;6.060;2023-07-02T13:20:14;99226.84;;;22.46;50.30
26719;BME280;14326;50.794;6.060;2023-07-02T13:22:41;99226.53;;;22.54;52.34
26719;BME280;14326;50.794;6.060;2023-07-02T13:25:08;99222.38;;;22.66;50.08
26719;BME280;14326;50.794;6.060;2023-07-02T13:27:35;99220.81;;;22.60;50.34
26719;BME280;14326;50.794;6.060;2023-07-02T13:30:05;99228.94;;;22.60;49.52
26719;BME280;14326;50.794;6.060;2023-07-02T13:33:06;99228.75;;;22.44;49.67
26719;BME280;14326;50.794;6.060;2023-07-02T13:35:53;99230.88;;;22.38;49.91
26719;BME280;14326;50.794;6.060;2023-07-02T13:38:30;99229.34;;;22.51;49.64
26719;BME280;14326;50.794;6.060;2023-07-02T13:40:57;99212.81;;;22.57;48.44
26719;BME280;14326;50.794;6.060;2023-07-02T13:43:24;99225.09;;;22.45;48.72
26719;BME280;14326;50.794;6.060;2023-07-02T13:45:52;99218.09;;;22.60;50.39
26719;BME280;14326;50.794;6.060;2023-07-02T13:48:19;99212.00;;;22.75;52.08
26719;BME280;14326;50.794;6.060;2023-07-02T13:50:46;99220.88;;;22.98;50.84
26719;BME280;14326;50.794;6.060;2023-07-02T13:53:12;99221.69;;;23.00;50.17
26719;BME280;14326;50.794;6.060;2023-07-02T13:55:39;99215.22;;;23.21;49.24
26719;BME280;14326;50.794;6.060;2023-07-02T13:58:15;99214.63;;;23.33;50.04
26719;BME280;14326;50.794;6.060;2023-07-02T14:00:58;99218.16;;;23.35;49.80
26719;BME280;14326;50.794;6.060;2023-07-02T14:03:25;99221.75;;;23.17;48.21
26719;BME280;14326;50.794;6.060;2023-07-02T14:05:51;99223.69;;;22.96;49.60
26719;BME280;14326;50.794;6.060;2023-07-02T14:08:18;99223.22;;;22.86;49.66
26719;BME280;14326;50.794;6.060;2023-07-02T14:10:45;99216.78;;;22.89;49.05
26719;BME280;14326;50.794;6.060;2023-07-02T14:13:12;99220.50;;;22.86;51.06
26719;BME280;14326;50.794;6.060;2023-07-02T14:15:39;99223.44;;;23.01;50.95
26719;BME280;14326;50.794;6.060;2023-07-02T14:18:41;99206.72;;;23.28;49.58
26719;BME280;14326;50.794;6.060;2023-07-02T14:21:08;99217.16;;;23.19;48.71
26719;BME280;14326;50.794;6.060;2023-07-02T14:23:34;99204.22;;;23.24;49.93
26719;BME280;14326;50.794;6.060;2023-07-02T14:26:01;99210.06;;;23.34;50.22